createdAt,value
2019-01-05T00:01:42.974Z,95.30
2019-01-05T00:04:17.503Z,95.20
2019-01-05T00:06:49.321Z,94.30
2019-01-05T00:09:31.845Z,96.80
2019-01-05T00:12:09.502Z,95.60
2019-01-05T00:14:39.746Z,96.80
2019-01-05T00:17:30.271Z,96.80
2019-01-05T00:20:18.380Z,98.20
2019-01-05T00:22:53.197Z,98.60
2019-01-05T00:25:41.338Z,99.80
2019-01-05T00:28:23.671Z,99.90
2019-01-05T00:31:02.404Z,99.90
2019-01-05T00:33:41.423Z,99.90
2019-01-05T00:36:30.540Z,99.90
2019-01-05T00:39:02.867Z,99.90
2019-01-05T00:41:43.661Z,99.90
2019-01-05T00:44:16.161Z,99.90
2019-01-05T00:47:01.826Z,99.90
2019-01-05T00:49:50.920Z,99.90
2019-01-05T00:52:33.149Z,99.90
2019-01-05T00:55:23.726Z,99.90
2019-01-05T00:58:01.819Z,99.90
2019-01-05T01:00:33.960Z,99.90
2019-01-05T01:03:21.512Z,99.90
2019-01-05T01:06:05.466Z,99.90
2019-01-05T01:08:43.384Z,99.90
2019-01-05T01:11:17.769Z,99.90
2019-01-05T01:14:05.958Z,99.90
2019-01-05T01:16:44.887Z,99.90
2019-01-05T01:19:19.972Z,99.90
2019-01-05T01:22:08.509Z,99.90
2019-01-05T01:24:56.359Z,99.90
2019-01-05T01:27:28.227Z,99.90
2019-01-05T01:30:18.574Z,99.90
2019-01-05T01:32:51.118Z,99.90
2019-01-05T01:35:37.808Z,99.90
2019-01-05T01:38:28.754Z,99.90
2019-01-05T01:41:03.556Z,99.90
2019-01-05T01:43:38.750Z,99.90
2019-01-05T01:46:26.723Z,99.90
2019-01-05T01:48:59.155Z,99.90
2019-01-05T01:51:47.476Z,99.90
2019-01-05T01:54:20.794Z,99.90
2019-01-05T01:56:56.301Z,99.90
2019-01-05T01:59:32.831Z,99.90
2019-01-05T02:02:15.676Z,99.90
2019-01-05T02:04:48.085Z,99.90
2019-01-05T02:07:28.516Z,99.90
2019-01-05T02:10:07.400Z,99.90
2019-01-05T02:12:42.053Z,99.90
2019-01-05T02:15:24.763Z,99.90
2019-01-05T02:18:04.010Z,99.90
2019-01-05T02:20:52.087Z,99.90
2019-01-05T02:23:58.695Z,99.90
2019-01-05T02:26:50.184Z,99.60
2019-01-05T02:29:52.439Z,99.70
2019-01-05T02:33:10.683Z,99.10
2019-01-05T02:36:04.622Z,99.90
2019-01-05T02:39:09.472Z,99.90
2019-01-05T02:42:20.492Z,99.90
2019-01-05T02:45:21.070Z,99.90
2019-01-05T02:48:21.216Z,99.90
2019-01-05T02:51:33.321Z,99.90
2019-01-05T02:54:30.721Z,99.90
2019-01-05T02:57:15.715Z,99.90
2019-01-05T03:00:45.497Z,99.90
2019-01-05T03:03:52.004Z,99.90
2019-01-05T03:06:58.811Z,99.90
2019-01-05T03:10:06.637Z,99.90
2019-01-05T03:13:17.728Z,99.90
2019-01-05T03:16:51.896Z,99.90
2019-01-05T03:19:59.076Z,99.90
2019-01-05T03:22:59.560Z,99.90
2019-01-05T03:26:02.490Z,99.90
2019-01-05T03:29:03.980Z,99.90
2019-01-05T03:32:17.013Z,99.90
2019-01-05T03:35:19.870Z,99.90
2019-01-05T03:38:32.849Z,99.90
2019-01-05T03:41:50.752Z,99.90
2019-01-05T03:45:11.400Z,99.90
2019-01-05T03:48:38.757Z,99.90
2019-01-05T03:51:45.388Z,99.90
2019-01-05T03:54:36.313Z,99.90
2019-01-05T03:57:33.702Z,99.90
2019-01-05T04:00:15.721Z,99.90
2019-01-05T04:03:42.279Z,99.90
2019-01-05T04:06:36.487Z,99.90
2019-01-05T04:09:46.084Z,99.90
2019-01-05T04:12:52.884Z,99.90
2019-01-05T04:16:17.401Z,99.90
2019-01-05T04:19:20.679Z,99.90
2019-01-05T04:22:18.194Z,99.90
2019-01-05T04:25:23.299Z,99.90
2019-01-05T04:28:23.255Z,99.90
2019-01-05T04:31:37.588Z,99.90
2019-01-05T04:34:47.189Z,99.90
2019-01-05T04:37:41.143Z,99.90
2019-01-05T04:40:32.286Z,99.90
2019-01-05T04:43:59.494Z,99.90
2019-01-05T04:47:13.526Z,99.90
2019-01-05T04:50:30.818Z,99.90
2019-01-05T04:53:32.779Z,99.90
2019-01-05T04:56:43.793Z,99.90
2019-01-05T04:59:34.929Z,99.90
2019-01-05T05:02:37.096Z,99.90
2019-01-05T05:05:43.043Z,99.90
2019-01-05T05:08:50.929Z,99.90
2019-01-05T05:12:11.208Z,99.90
2019-01-05T05:15:25.377Z,99.90
2019-01-05T05:18:15.801Z,99.90
2019-01-05T05:21:19.097Z,99.90
2019-01-05T05:24:53.080Z,99.90
2019-01-05T05:28:11.296Z,99.90
2019-01-05T05:31:42.264Z,99.90
2019-01-05T05:34:59.562Z,99.90
2019-01-05T05:38:09.496Z,99.90
2019-01-05T05:41:14.666Z,99.90
2019-01-05T05:44:19.024Z,99.90
2019-01-05T05:47:35.726Z,99.90
2019-01-05T05:50:50.736Z,99.90
2019-01-05T05:54:03.505Z,99.90
2019-01-05T05:57:23.586Z,99.90
2019-01-05T06:00:46.190Z,99.90
2019-01-05T06:03:43.655Z,99.90
2019-01-05T06:07:15.689Z,99.90
2019-01-05T06:10:29.904Z,99.90
2019-01-05T06:13:50.385Z,99.90
2019-01-05T06:16:41.861Z,99.90
2019-01-05T06:19:54.773Z,99.90
2019-01-05T06:23:24.340Z,99.90
2019-01-05T06:26:38.298Z,99.90
2019-01-05T06:29:37.669Z,99.90
2019-01-05T06:33:10.052Z,99.90
2019-01-05T06:36:21.038Z,99.90
2019-01-05T06:39:38.295Z,99.90
2019-01-05T06:42:32.437Z,99.90
2019-01-05T06:45:58.225Z,99.90
2019-01-05T06:48:59.660Z,99.90
2019-01-05T06:52:04.248Z,99.90
2019-01-05T06:55:01.361Z,99.90
2019-01-05T06:57:52.209Z,99.90
2019-01-05T07:00:37.354Z,99.90
2019-01-05T07:03:44.817Z,99.90
2019-01-05T07:07:03.636Z,99.90
2019-01-05T07:10:06.554Z,99.90
2019-01-05T07:13:01.863Z,99.90
2019-01-05T07:16:03.671Z,99.90
2019-01-05T07:19:17.982Z,99.90
2019-01-05T07:22:12.357Z,99.90
2019-01-05T07:25:40.168Z,99.90
2019-01-05T07:29:04.565Z,99.90
2019-01-05T07:32:29.547Z,99.90
2019-01-05T07:35:08.928Z,99.90
2019-01-05T07:38:19.526Z,99.90
2019-01-05T07:41:22.849Z,99.90
2019-01-05T07:44:38.396Z,99.90
2019-01-05T07:47:38.637Z,99.90
2019-01-05T07:51:03.922Z,99.90
2019-01-05T07:54:21.168Z,99.90
2019-01-05T07:57:32.273Z,99.90
2019-01-05T08:00:48.912Z,99.90
2019-01-05T08:03:28.313Z,99.90
2019-01-05T08:06:37.448Z,99.90
2019-01-05T08:09:42.405Z,99.90
2019-01-05T08:12:39.935Z,99.90
2019-01-05T08:15:38.714Z,99.90
2019-01-05T08:18:46.968Z,99.90
2019-01-05T08:21:45.962Z,99.90
2019-01-05T08:24:48.712Z,99.90
2019-01-05T08:28:21.255Z,99.90
2019-01-05T08:31:34.840Z,99.90
2019-01-05T08:34:59.339Z,99.90
2019-01-05T08:38:26.007Z,99.90
2019-01-05T08:41:29.177Z,99.90
2019-01-05T08:44:56.687Z,99.90
2019-01-05T08:47:50.698Z,99.90
2019-01-05T08:51:20.555Z,99.90
2019-01-05T08:54:30.312Z,99.90
2019-01-05T08:57:44.551Z,99.90
2019-01-05T09:00:49.758Z,99.90
2019-01-05T09:04:15.995Z,99.90
2019-01-05T09:07:12.042Z,97.90
2019-01-05T09:10:17.121Z,97.60
2019-01-05T09:13:39.579Z,98.00
2019-01-05T09:16:53.315Z,97.80
2019-01-05T09:20:28.281Z,97.50
2019-01-05T09:23:48.807Z,96.90
2019-01-05T09:26:47.708Z,95.40
2019-01-05T09:30:01.462Z,94.30
2019-01-05T09:32:51.978Z,93.70
2019-01-05T09:36:00.138Z,93.10
2019-01-05T09:39:19.865Z,94.90
2019-01-05T09:42:33.427Z,93.20
2019-01-05T09:45:48.882Z,93.70
2019-01-05T09:49:18.858Z,93.60
2019-01-05T09:52:22.161Z,92.90
2019-01-05T09:55:21.273Z,92.00
2019-01-05T09:58:47.987Z,92.30
2019-01-05T10:02:31.090Z,92.20
2019-01-05T10:05:41.294Z,91.30
2019-01-05T10:08:37.821Z,92.40
2019-01-05T10:11:36.858Z,93.00
2019-01-05T10:14:49.804Z,91.70
2019-01-05T10:17:42.571Z,92.70
2019-01-05T10:21:08.980Z,93.20
2019-01-05T10:24:06.813Z,92.80
2019-01-05T10:27:15.983Z,90.40
2019-01-05T10:30:28.728Z,91.10
2019-01-05T10:33:54.846Z,89.80
2019-01-05T10:37:04.320Z,88.90
2019-01-05T10:39:55.561Z,88.40
2019-01-05T10:43:13.921Z,86.00
2019-01-05T10:46:27.839Z,82.80
2019-01-05T10:49:52.945Z,81.10
2019-01-05T10:53:11.267Z,80.00
2019-01-05T10:55:59.331Z,78.90
2019-01-05T10:59:02.377Z,78.90
2019-01-05T11:02:14.844Z,77.20
2019-01-05T11:05:23.964Z,78.30
2019-01-05T11:08:39.497Z,77.80
2019-01-05T11:11:26.084Z,77.00
2019-01-05T11:14:57.591Z,77.20
2019-01-05T11:18:29.731Z,77.20
2019-01-05T11:21:27.023Z,76.80
2019-01-05T11:24:32.007Z,76.00
2019-01-05T11:27:45.002Z,76.20
2019-01-05T11:30:49.517Z,75.30
2019-01-05T11:33:54.171Z,75.50
2019-01-05T11:37:01.820Z,75.20
2019-01-05T11:40:41.986Z,74.70
2019-01-05T11:43:42.164Z,75.10
2019-01-05T11:46:36.635Z,75.40
2019-01-05T11:50:07.453Z,75.30
2019-01-05T11:53:31.407Z,75.00
2019-01-05T11:56:49.463Z,75.30
2019-01-05T11:59:40.857Z,73.70
2019-01-05T12:02:43.900Z,74.40
2019-01-05T12:05:32.233Z,74.10
2019-01-05T12:08:30.992Z,73.70
2019-01-05T12:11:26.409Z,74.20
2019-01-05T12:14:45.521Z,72.90
2019-01-05T12:18:16.166Z,71.50
2019-01-05T12:20:58.082Z,71.80
2019-01-05T12:24:15.142Z,71.90
2019-01-05T12:27:36.103Z,71.30
2019-01-05T12:31:04.716Z,70.30
2019-01-05T12:34:12.885Z,70.90
2019-01-05T12:37:13.646Z,70.30
2019-01-05T12:40:18.946Z,71.10
2019-01-05T12:44:01.949Z,70.60
2019-01-05T12:47:18.127Z,71.20
2019-01-05T12:50:38.584Z,70.70
2019-01-05T12:53:51.760Z,71.30
2019-01-05T12:57:18.302Z,71.30
2019-01-05T13:00:35.146Z,71.50
2019-01-05T13:03:56.785Z,71.50
2019-01-05T13:07:28.246Z,72.20
2019-01-05T13:10:45.397Z,71.70
2019-01-05T13:13:39.694Z,71.80
2019-01-05T13:20:36.825Z,71.50
2019-01-05T13:23:31.119Z,71.70
2019-01-05T13:26:22.655Z,71.30
2019-01-05T13:29:39.808Z,71.60
2019-01-05T13:33:18.279Z,71.70
2019-01-05T13:36:50.096Z,72.50
2019-01-05T13:39:50.775Z,74.20
2019-01-05T13:42:57.394Z,73.10
2019-01-05T13:45:58.342Z,73.90
2019-01-05T13:49:06.728Z,74.10
2019-01-05T13:52:15.651Z,73.20
2019-01-05T13:54:50.537Z,74.00
2019-01-05T13:57:22.317Z,73.90
2019-01-05T13:59:57.046Z,74.20
2019-01-05T14:02:38.149Z,74.00
2019-01-05T14:05:21.841Z,74.40
2019-01-05T14:07:53.725Z,75.60
2019-01-05T14:10:23.658Z,75.60
2019-01-05T14:12:58.365Z,75.90
2019-01-05T14:15:46.377Z,76.80
2019-01-05T14:18:18.210Z,76.50
2019-01-05T14:20:58.837Z,76.90
2019-01-05T14:23:36.381Z,78.50
2019-01-05T14:26:15.101Z,79.60
2019-01-05T14:28:49.590Z,79.60
2019-01-05T14:31:37.502Z,80.10
2019-01-05T14:34:10.123Z,79.40
2019-01-05T14:36:51.166Z,79.50
2019-01-05T14:39:39.270Z,80.70
2019-01-05T14:42:11.054Z,81.80
2019-01-05T14:44:52.999Z,82.00
2019-01-05T14:47:41.149Z,81.00
2019-01-05T14:50:28.903Z,80.10
2019-01-05T14:53:17.187Z,81.20
2019-01-05T14:55:58.035Z,81.10
2019-01-05T14:58:37.309Z,82.50
2019-01-05T15:01:27.188Z,82.20
2019-01-05T15:04:15.416Z,80.60
2019-01-05T15:06:51.227Z,81.60
2019-01-05T15:09:25.842Z,81.30
2019-01-05T15:12:12.518Z,80.60
2019-01-05T15:14:46.753Z,80.80
2019-01-05T15:17:27.614Z,80.30
2019-01-05T15:19:57.528Z,80.50
2019-01-05T15:22:41.476Z,79.60
2019-01-05T15:25:13.398Z,80.60
2019-01-05T15:27:45.250Z,80.30
2019-01-05T15:30:31.927Z,79.80
2019-01-05T15:33:15.704Z,79.70
2019-01-05T15:36:03.586Z,79.10
2019-01-05T15:38:35.444Z,78.70
2019-01-05T15:41:09.753Z,78.90
2019-01-05T15:43:54.933Z,78.70
2019-01-05T15:46:24.914Z,79.60
2019-01-05T15:48:56.675Z,78.60
2019-01-05T15:51:36.961Z,78.80
2019-01-05T15:54:08.755Z,78.40
2019-01-05T15:56:56.663Z,78.30
2019-01-05T15:59:40.367Z,78.00
2019-01-05T16:02:12.180Z,77.80
2019-01-05T16:04:56.183Z,77.40
2019-01-05T16:07:33.970Z,78.10
2019-01-05T16:10:07.506Z,77.40
2019-01-05T16:12:42.010Z,77.90
2019-01-05T16:15:28.565Z,76.20
2019-01-05T16:18:02.904Z,76.30
2019-01-05T16:20:34.729Z,77.40
2019-01-05T16:23:17.077Z,78.00
2019-01-05T16:25:54.414Z,77.80
2019-01-05T16:28:24.337Z,77.80
2019-01-05T16:31:12.610Z,78.10
2019-01-05T16:33:46.842Z,77.70
2019-01-05T16:36:30.685Z,77.60
2019-01-05T16:39:02.493Z,78.20
2019-01-05T16:41:34.271Z,78.70
2019-01-05T16:44:06.061Z,79.20
2019-01-05T16:46:43.632Z,78.40
2019-01-05T16:49:13.541Z,77.70
2019-01-05T16:51:51.540Z,78.10
2019-01-05T16:54:39.338Z,78.20
2019-01-05T16:57:13.840Z,76.70
2019-01-05T17:00:02.798Z,76.80
2019-01-05T17:02:37.582Z,77.40
2019-01-05T17:05:20.969Z,77.10
2019-01-05T17:08:01.793Z,76.90
2019-01-05T17:10:49.776Z,77.30
2019-01-05T17:13:27.825Z,76.90
2019-01-05T17:16:02.474Z,76.90
2019-01-05T17:18:46.302Z,77.50
2019-01-05T17:21:34.106Z,78.00
2019-01-05T17:24:22.082Z,77.30
2019-01-05T17:27:06.814Z,76.50
2019-01-05T17:29:38.624Z,76.50
2019-01-05T17:32:22.128Z,76.70
2019-01-05T17:35:10.133Z,77.40
2019-01-05T17:37:58.356Z,76.50
2019-01-05T17:40:34.371Z,76.60
2019-01-05T17:43:06.181Z,77.50
2019-01-05T17:45:47.218Z,76.20
2019-01-05T17:48:21.776Z,75.50
2019-01-05T17:51:10.156Z,75.60
2019-01-05T17:53:57.932Z,76.60
2019-01-05T17:56:29.714Z,75.00
2019-01-05T17:59:16.742Z,75.80
2019-01-05T18:01:48.524Z,75.40
2019-01-05T18:04:36.684Z,76.30
2019-01-05T18:07:08.483Z,76.10
2019-01-05T18:09:43.140Z,76.20
2019-01-05T18:12:31.246Z,76.70
2019-01-05T18:15:07.316Z,76.70
2019-01-05T18:17:48.032Z,75.90
2019-01-05T18:20:25.884Z,76.70
2019-01-05T18:23:13.889Z,76.20
2019-01-05T18:25:45.740Z,75.90
2019-01-05T18:28:24.913Z,76.30
2019-01-05T18:31:11.885Z,77.20
2019-01-05T18:34:01.836Z,76.80
2019-01-05T18:36:33.642Z,76.80
2019-01-05T18:39:12.453Z,78.10
2019-01-05T18:41:50.876Z,77.10
2019-01-05T18:44:22.652Z,77.70
2019-01-05T18:47:00.583Z,77.70
2019-01-05T18:49:38.233Z,77.30
2019-01-05T18:52:08.197Z,76.90
2019-01-05T18:54:55.936Z,76.90
2019-01-05T18:57:37.003Z,77.10
2019-01-05T19:00:17.753Z,76.20
2019-01-05T19:03:01.357Z,77.30
2019-01-05T19:05:49.058Z,75.80
2019-01-05T19:08:26.894Z,76.40
2019-01-05T19:11:01.104Z,76.00
2019-01-05T19:13:38.727Z,76.30
2019-01-05T19:16:25.430Z,76.60
2019-01-05T19:18:59.823Z,75.20
2019-01-05T19:21:37.703Z,75.60
2019-01-05T19:24:09.571Z,75.80
2019-01-05T19:26:50.659Z,75.90
2019-01-05T19:29:31.265Z,75.30
2019-01-05T19:32:19.131Z,75.70
2019-01-05T19:35:06.046Z,76.00
2019-01-05T19:37:47.195Z,75.40
2019-01-05T19:40:35.259Z,76.10
2019-01-05T19:43:13.068Z,76.70
2019-01-05T19:46:01.193Z,76.80
2019-01-05T19:48:49.148Z,76.80
2019-01-05T19:51:37.258Z,75.80
2019-01-05T19:54:20.969Z,76.50
2019-01-05T19:56:53.882Z,76.70
2019-01-05T19:59:25.718Z,76.30
2019-01-05T20:01:57.507Z,76.40
2019-01-05T20:04:46.794Z,77.20
2019-01-05T20:07:30.680Z,77.00
2019-01-05T20:10:10.448Z,77.30
2019-01-05T20:12:54.232Z,77.70
2019-01-05T20:15:31.993Z,77.90
2019-01-05T20:18:19.671Z,77.80
2019-01-05T20:20:57.454Z,78.20
2019-01-05T20:23:45.192Z,77.50
2019-01-05T20:26:26.237Z,77.00
2019-01-05T20:29:00.864Z,77.70
2019-01-05T20:31:32.684Z,78.20
2019-01-05T20:34:20.704Z,78.20
2019-01-05T20:37:08.646Z,79.10
2019-01-05T20:39:46.246Z,79.70
2019-01-05T20:42:18.073Z,80.30
2019-01-05T20:45:06.068Z,79.90
2019-01-05T20:47:43.675Z,79.50
2019-01-05T20:50:28.318Z,78.50
2019-01-05T20:53:06.150Z,79.50
2019-01-05T20:55:44.900Z,79.30
2019-01-05T20:58:26.780Z,79.10
2019-01-05T21:01:26.670Z,77.80
2019-01-05T21:03:58.481Z,78.50
2019-01-05T21:06:39.343Z,77.90
2019-01-05T21:09:27.522Z,78.40
2019-01-05T21:12:11.349Z,78.10
2019-01-05T21:14:58.459Z,77.60
2019-01-05T21:17:31.084Z,77.70
2019-01-05T21:20:14.733Z,76.00
2019-01-05T21:22:46.494Z,76.10
2019-01-05T21:25:34.595Z,76.40
2019-01-05T21:28:08.832Z,77.30
2019-01-05T21:30:49.689Z,77.80
2019-01-05T21:33:28.407Z,77.70
2019-01-05T21:36:03.050Z,78.00
2019-01-05T21:38:43.646Z,78.80
2019-01-05T21:41:33.106Z,78.90
2019-01-05T21:44:21.027Z,80.00
2019-01-05T21:46:58.857Z,79.90
2019-01-05T21:49:43.359Z,80.50
2019-01-05T21:52:21.091Z,81.20
2019-01-05T21:55:11.225Z,81.50
2019-01-05T21:57:44.780Z,81.30
2019-01-05T22:00:25.879Z,80.90
2019-01-05T22:03:14.048Z,81.30
2019-01-05T22:05:45.925Z,80.80
2019-01-05T22:08:17.684Z,81.10
2019-01-05T22:10:58.304Z,81.40
2019-01-05T22:13:42.302Z,82.00
2019-01-05T22:16:30.107Z,80.70
2019-01-05T22:19:13.926Z,79.90
2019-01-05T22:21:51.488Z,79.80
2019-01-05T22:24:29.068Z,80.10
2019-01-05T22:27:16.671Z,80.80
2019-01-05T22:29:51.614Z,80.80
2019-01-05T22:32:23.389Z,80.10
2019-01-05T22:34:55.174Z,78.20
2019-01-05T22:37:44.412Z,78.10
2019-01-05T22:40:32.431Z,77.70
2019-01-05T22:43:02.356Z,78.50
2019-01-05T22:45:49.265Z,78.90
2019-01-05T22:48:36.950Z,78.90
2019-01-05T22:51:21.362Z,78.00
2019-01-05T22:53:51.881Z,77.30
2019-01-05T22:56:21.792Z,77.10
2019-01-05T22:59:05.685Z,76.80
2019-01-05T23:01:53.693Z,76.20
2019-01-05T23:04:41.985Z,75.60
2019-01-05T23:07:27.095Z,75.60
2019-01-05T23:10:01.574Z,76.00
2019-01-05T23:12:39.595Z,75.60
2019-01-05T23:15:11.410Z,76.70
2019-01-05T23:17:55.199Z,76.20
2019-01-05T23:20:29.966Z,76.00
2019-01-05T23:25:41.556Z,76.10
2019-01-05T23:28:29.387Z,77.00
2019-01-05T23:31:17.519Z,77.30
2019-01-05T23:34:05.912Z,74.90
2019-01-05T23:36:53.621Z,74.80
2019-01-05T23:39:28.345Z,75.10
2019-01-05T23:42:01.098Z,75.10
2019-01-05T23:44:49.163Z,74.50
2019-01-05T23:47:23.644Z,74.10
2019-01-05T23:49:55.424Z,74.80
2019-01-05T23:52:39.295Z,74.60
2019-01-05T23:55:13.902Z,74.50
2019-01-05T23:57:48.423Z,74.30
